sensor_id;sensor_type;location;lat;lon;timestamp;pressure;altitude;pressure_sealevel;temperature;humidity
75543;BME280;64129;53.508;10.476;2023-05-10T00:00:12;100427.31;;;13.71;48.46
75543;BME280;64129;53.508;10.476;2023-05-10T00:02:38;100421.38;;;13.64;49.10
75543;BME280;64129;53.508;10.476;2023-05-10T00:05:06;100414.16;;;13.66;48.39
75543;BME280;64129;53.508;10.476;2023-05-10T00:07:33;100413.81;;;13.54;49.38
75543;BME280;64129;53.508;10.476;2023-05-10T00:09:59;100418.31;;;13.52;49.48
75543;BME280;64129;53.508;10.476;2023-05-10T00:12:26;100417.16;;;13.59;49.45
75543;BME280;64129;53.508;10.476;2023-05-10T00:14:52;100415.53;;;13.55;49.20
75543;BME280;64129;53.508;10.476;2023-05-10T00:17:19;100412.28;;;13.47;49.22
75543;BME280;64129;53.508;10.476;2023-05-10T00:19:45;100411.00;;;13.57;48.98
75543;BME280;64129;53.508;10.476;2023-05-10T00:22:12;100407.88;;;13.46;48.86
75543;BME280;64129;53.508;10.476;2023-05-10T00:24:38;100397.47;;;13.39;49.55
75543;BME280;64129;53.508;10.476;2023-05-10T00:27:05;100394.25;;;13.31;50.34
75543;BME280;64129;53.508;10.476;2023-05-10T00:29:31;100400.78;;;13.24;50.41
75543;BME280;64129;53.508;10.476;2023-05-10T00:31:59;100396.81;;;13.34;50.01
75543;BME280;64129;53.508;10.476;2023-05-10T00:34:25;100383.72;;;13.28;49.75
75543;BME280;64129;53.508;10.476;2023-05-10T00:36:52;100388.59;;;13.17;50.31
75543;BME280;64129;53.508;10.476;2023-05-10T00:39:19;100379.56;;;13.21;50.54
75543;BME280;64129;53.508;10.476;2023-05-10T00:41:45;100378.13;;;13.11;50.61
75543;BME280;64129;53.508;10.476;2023-05-10T00:44:12;100370.75;;;13.19;50.07
75543;BME280;64129;53.508;10.476;2023-05-10T00:46:38;100375.47;;;13.11;50.74
75543;BME280;64129;53.508;10.476;2023-05-10T00:49:05;100378.25;;;13.08;50.57
75543;BME280;64129;53.508;10.476;2023-05-10T00:51:32;100382.59;;;13.10;50.98
75543;BME280;64129;53.508;10.476;2023-05-10T00:53:59;100374.66;;;13.09;50.69
75543;BME280;64129;53.508;10.476;2023-05-10T00:56:26;100371.19;;;13.07;50.78
75543;BME280;64129;53.508;10.476;2023-05-10T00:58:53;100373.69;;;13.11;50.85
75543;BME280;64129;53.508;10.476;2023-05-10T01:01:19;100372.81;;;13.11;49.87
75543;BME280;64129;53.508;10.476;2023-05-10T01:03:46;100369.94;;;12.94;50.96
75543;BME280;64129;53.508;10.476;2023-05-10T01:06:14;100370.69;;;12.97;50.95
75543;BME280;64129;53.508;10.476;2023-05-10T01:08:41;100358.72;;;12.86;51.52
75543;BME280;64129;53.508;10.476;2023-05-10T01:11:07;100356.63;;;12.94;51.53
75543;BME280;64129;53.508;10.476;2023-05-10T01:13:38;100357.69;;;12.90;51.59
75543;BME280;64129;53.508;10.476;2023-05-10T01:16:05;100357.09;;;12.81;51.35
75543;BME280;64129;53.508;10.476;2023-05-10T01:18:35;100357.69;;;12.90;50.75
75543;BME280;64129;53.508;10.476;2023-05-10T01:21:17;100355.00;;;12.90;51.67
75543;BME280;64129;53.508;10.476;2023-05-10T01:24:09;100352.00;;;12.75;52.13
75543;BME280;64129;53.508;10.476;2023-05-10T01:27:04;100349.22;;;12.78;51.72
75543;BME280;64129;53.508;10.476;2023-05-10T01:35:39;100340.34;;;12.56;53.27
75543;BME280;64129;53.508;10.476;2023-05-10T01:41:14;100349.00;;;12.61;52.34
75543;BME280;64129;53.508;10.476;2023-05-10T01:43:48;100352.53;;;12.62;52.55
75543;BME280;64129;53.508;10.476;2023-05-10T01:46:20;100353.09;;;12.46;53.13
75543;BME280;64129;53.508;10.476;2023-05-10T01:48:53;100341.69;;;12.43;53.48
75543;BME280;64129;53.508;10.476;2023-05-10T01:51:29;100351.53;;;12.41;52.94
75543;BME280;64129;53.508;10.476;2023-05-10T01:54:01;100349.19;;;12.57;52.62
75543;BME280;64129;53.508;10.476;2023-05-10T01:56:30;100347.25;;;12.37;53.63
75543;BME280;64129;53.508;10.476;2023-05-10T01:58:58;100338.34;;;12.38;53.30
75543;BME280;64129;53.508;10.476;2023-05-10T02:01:26;100349.50;;;12.47;53.33
75543;BME280;64129;53.508;10.476;2023-05-10T02:03:53;100357.91;;;12.37;53.69
75543;BME280;64129;53.508;10.476;2023-05-10T02:06:23;100354.09;;;12.44;53.10
75543;BME280;64129;53.508;10.476;2023-05-10T02:08:52;100362.03;;;12.45;52.57
75543;BME280;64129;53.508;10.476;2023-05-10T02:11:19;100355.63;;;12.51;52.67
75543;BME280;64129;53.508;10.476;2023-05-10T02:13:49;100359.19;;;12.27;53.94
75543;BME280;64129;53.508;10.476;2023-05-10T02:16:18;100358.38;;;12.25;53.13
75543;BME280;64129;53.508;10.476;2023-05-10T02:18:50;100368.31;;;12.20;54.42
75543;BME280;64129;53.508;10.476;2023-05-10T02:21:20;100364.34;;;12.31;53.59
75543;BME280;64129;53.508;10.476;2023-05-10T02:23:48;100369.50;;;12.36;54.07
75543;BME280;64129;53.508;10.476;2023-05-10T02:26:16;100359.19;;;12.27;54.11
75543;BME280;64129;53.508;10.476;2023-05-10T02:28:44;100354.31;;;12.14;55.00
75543;BME280;64129;53.508;10.476;2023-05-10T02:31:12;100360.53;;;12.13;55.27
75543;BME280;64129;53.508;10.476;2023-05-10T02:33:40;100364.78;;;12.19;54.64
75543;BME280;64129;53.508;10.476;2023-05-10T02:36:07;100363.00;;;12.20;54.72
75543;BME280;64129;53.508;10.476;2023-05-10T02:38:36;100354.63;;;12.05;55.13
75543;BME280;64129;53.508;10.476;2023-05-10T02:41:04;100356.97;;;12.14;54.85
75543;BME280;64129;53.508;10.476;2023-05-10T02:43:33;100347.84;;;11.97;55.33
75543;BME280;64129;53.508;10.476;2023-05-10T02:46:00;100352.06;;;12.02;55.40
75543;BME280;64129;53.508;10.476;2023-05-10T02:48:27;100343.41;;;11.97;55.55
75543;BME280;64129;53.508;10.476;2023-05-10T02:50:56;100348.78;;;11.96;55.78
75543;BME280;64129;53.508;10.476;2023-05-10T02:53:36;100352.06;;;12.02;54.84
75543;BME280;64129;53.508;10.476;2023-05-10T02:56:07;100345.47;;;11.89;56.02
75543;BME280;64129;53.508;10.476;2023-05-10T02:58:38;100342.81;;;11.89;55.72
75543;BME280;64129;53.508;10.476;2023-05-10T03:01:05;100334.94;;;11.86;55.58
75543;BME280;64129;53.508;10.476;2023-05-10T03:03:33;100329.88;;;11.77;56.39
75543;BME280;64129;53.508;10.476;2023-05-10T03:05:59;100327.75;;;11.88;55.96
75543;BME280;64129;53.508;10.476;2023-05-10T03:08:26;100334.25;;;11.79;56.10
75543;BME280;64129;53.508;10.476;2023-05-10T03:14:21;100328.84;;;11.82;55.90
75543;BME280;64129;53.508;10.476;2023-05-10T03:17:06;100322.94;;;11.73;56.61
75543;BME280;64129;53.508;10.476;2023-05-10T03:19:39;100337.47;;;11.63;57.03
75543;BME280;64129;53.508;10.476;2023-05-10T03:22:10;100323.84;;;11.72;56.02
75543;BME280;64129;53.508;10.476;2023-05-10T03:24:39;100327.31;;;11.74;56.39
75543;BME280;64129;53.508;10.476;2023-05-10T03:27:08;100323.03;;;11.70;56.49
75543;BME280;64129;53.508;10.476;2023-05-10T03:29:36;100328.69;;;11.61;57.05
75543;BME280;64129;53.508;10.476;2023-05-10T03:32:03;100325.97;;;11.62;57.04
75543;BME280;64129;53.508;10.476;2023-05-10T03:34:30;100318.16;;;11.57;57.04
75543;BME280;64129;53.508;10.476;2023-05-10T03:36:57;100321.94;;;11.50;57.55
75543;BME280;64129;53.508;10.476;2023-05-10T03:39:26;100318.25;;;11.54;57.41
75543;BME280;64129;53.508;10.476;2023-05-10T03:41:56;100316.53;;;11.53;57.47
75543;BME280;64129;53.508;10.476;2023-05-10T03:44:23;100316.53;;;11.53;57.18
75543;BME280;64129;53.508;10.476;2023-05-10T03:46:49;100315.44;;;11.59;56.78
75543;BME280;64129;53.508;10.476;2023-05-10T03:49:16;100323.91;;;11.45;57.74
75543;BME280;64129;53.508;10.476;2023-05-10T03:51:43;100328.63;;;11.36;58.54
75543;BME280;64129;53.508;10.476;2023-05-10T03:54:09;100317.44;;;11.52;57.22
75543;BME280;64129;53.508;10.476;2023-05-10T03:56:36;100319.88;;;11.59;57.55
75543;BME280;64129;53.508;10.476;2023-05-10T03:59:02;100325.63;;;11.46;57.93
75543;BME280;64129;53.508;10.476;2023-05-10T04:01:34;100324.78;;;11.46;57.46
75543;BME280;64129;53.508;10.476;2023-05-10T04:04:01;100323.16;;;11.40;58.03
75543;BME280;64129;53.508;10.476;2023-05-10T04:06:30;100320.28;;;11.48;57.59
75543;BME280;64129;53.508;10.476;2023-05-10T04:08:57;100323.03;;;11.45;58.39
75543;BME280;64129;53.508;10.476;2023-05-10T04:11:26;100324.72;;;11.47;57.42
75543;BME280;64129;53.508;10.476;2023-05-10T04:13:52;100316.63;;;11.50;57.27
75543;BME280;64129;53.508;10.476;2023-05-10T04:16:19;100322.66;;;11.55;57.32
75543;BME280;64129;53.508;10.476;2023-05-10T04:18:45;100324.78;;;11.46;58.52
75543;BME280;64129;53.508;10.476;2023-05-10T04:21:13;100314.03;;;11.49;57.69
75543;BME280;64129;53.508;10.476;2023-05-10T04:23:40;100322.56;;;11.59;57.29
75543;BME280;64129;53.508;10.476;2023-05-10T04:26:07;100328.78;;;11.57;57.35
75543;BME280;64129;53.508;10.476;2023-05-10T04:28:33;100323.06;;;11.43;58.74
75543;BME280;64129;53.508;10.476;2023-05-10T04:31:04;100324.50;;;11.53;57.53
75543;BME280;64129;53.508;10.476;2023-05-10T04:33:31;100319.88;;;11.59;57.16
75543;BME280;64129;53.508;10.476;2023-05-10T04:35:57;100319.19;;;11.53;58.17
75543;BME280;64129;53.508;10.476;2023-05-10T04:38:24;100320.81;;;11.31;59.18
75543;BME280;64129;53.508;10.476;2023-05-10T04:40:51;100318.25;;;11.54;57.35
75543;BME280;64129;53.508;10.476;2023-05-10T04:43:17;100320.31;;;11.46;58.33
75543;BME280;64129;53.508;10.476;2023-05-10T04:45:44;100319.34;;;11.49;58.49
75543;BME280;64129;53.508;10.476;2023-05-10T04:48:10;100326.94;;;11.60;58.04
75543;BME280;64129;53.508;10.476;2023-05-10T04:50:37;100323.47;;;11.57;58.32
75543;BME280;64129;53.508;10.476;2023-05-10T04:53:04;100321.31;;;11.69;57.78
75543;BME280;64129;53.508;10.476;2023-05-10T04:55:30;100328.34;;;11.70;57.74
75543;BME280;64129;53.508;10.476;2023-05-10T04:57:57;100325.38;;;11.54;58.55
75543;BME280;64129;53.508;10.476;2023-05-10T05:00:25;100329.28;;;11.69;58.36
75543;BME280;64129;53.508;10.476;2023-05-10T05:02:51;100328.47;;;11.67;57.96
75543;BME280;64129;53.508;10.476;2023-05-10T05:05:18;100320.59;;;11.64;58.80
75543;BME280;64129;53.508;10.476;2023-05-10T05:07:44;100324.88;;;11.68;57.64
75543;BME280;64129;53.508;10.476;2023-05-10T05:10:11;100332.81;;;11.69;57.73
75543;BME280;64129;53.508;10.476;2023-05-10T05:12:37;100336.34;;;11.70;57.38
75543;BME280;64129;53.508;10.476;2023-05-10T05:15:04;100335.41;;;11.71;57.99
75543;BME280;64129;53.508;10.476;2023-05-10T05:17:32;100324.41;;;11.83;57.67
75543;BME280;64129;53.508;10.476;2023-05-10T05:19:58;100324.66;;;11.74;57.67
75543;BME280;64129;53.508;10.476;2023-05-10T05:22:25;100325.22;;;11.85;58.15
75543;BME280;64129;53.508;10.476;2023-05-10T05:24:54;100324.19;;;11.89;58.01
75543;BME280;64129;53.508;10.476;2023-05-10T05:27:21;100321.41;;;11.92;57.63
75543;BME280;64129;53.508;10.476;2023-05-10T05:29:50;100325.03;;;11.90;58.22
75543;BME280;64129;53.508;10.476;2023-05-10T05:32:18;100320.13;;;12.02;58.66
75543;BME280;64129;53.508;10.476;2023-05-10T05:34:45;100330.78;;;12.02;57.74
75543;BME280;64129;53.508;10.476;2023-05-10T05:37:16;100332.47;;;12.05;57.29
75543;BME280;64129;53.508;10.476;2023-05-10T05:39:43;100330.56;;;12.08;57.02
75543;BME280;64129;53.508;10.476;2023-05-10T05:42:10;100336.75;;;12.09;57.20
75543;BME280;64129;53.508;10.476;2023-05-10T05:44:37;100338.13;;;12.21;56.71
75543;BME280;64129;53.508;10.476;2023-05-10T05:47:04;100328.28;;;12.23;57.33
75543;BME280;64129;53.508;10.476;2023-05-10T05:49:31;100332.56;;;12.27;57.00
75543;BME280;64129;53.508;10.476;2023-05-10T05:52:01;100340.19;;;12.36;57.10
75543;BME280;64129;53.508;10.476;2023-05-10T05:54:29;100338.34;;;12.38;57.23
75543;BME280;64129;53.508;10.476;2023-05-10T05:56:57;100334.63;;;12.42;56.70
75543;BME280;64129;53.508;10.476;2023-05-10T05:59:25;100337.44;;;12.62;55.40
75543;BME280;64129;53.508;10.476;2023-05-10T06:01:52;100331.72;;;12.71;55.20
75543;BME280;64129;53.508;10.476;2023-05-10T06:04:19;100322.81;;;12.72;56.10
75543;BME280;64129;53.508;10.476;2023-05-10T06:06:45;100320.94;;;12.74;55.84
75543;BME280;64129;53.508;10.476;2023-05-10T06:09:12;100328.69;;;12.80;55.35
75543;BME280;64129;53.508;10.476;2023-05-10T06:11:39;100333.31;;;12.99;55.88
75543;BME280;64129;53.508;10.476;2023-05-10T06:14:05;100333.63;;;13.13;55.39
75543;BME280;64129;53.508;10.476;2023-05-10T06:16:34;100333.50;;;13.16;54.84
75543;BME280;64129;53.508;10.476;2023-05-10T06:19:01;100345.94;;;13.17;54.83
75543;BME280;64129;53.508;10.476;2023-05-10T06:21:28;100338.38;;;13.28;54.91
75543;BME280;64129;53.508;10.476;2023-05-10T06:23:55;100334.66;;;13.32;54.71
75543;BME280;64129;53.508;10.476;2023-05-10T06:26:21;100350.41;;;13.38;54.81
75543;BME280;64129;53.508;10.476;2023-05-10T06:28:48;100338.00;;;13.37;54.55
75543;BME280;64129;53.508;10.476;2023-05-10T06:31:15;100337.25;;;13.34;54.61
75543;BME280;64129;53.508;10.476;2023-05-10T06:33:42;100345.31;;;13.32;54.09
75543;BME280;64129;53.508;10.476;2023-05-10T06:36:08;100344.25;;;13.36;54.32
75543;BME280;64129;53.508;10.476;2023-05-10T06:38:35;100347.09;;;13.54;54.36
75543;BME280;64129;53.508;10.476;2023-05-10T06:41:01;100350.00;;;13.48;53.73
75543;BME280;64129;53.508;10.476;2023-05-10T06:43:28;100352.84;;;13.65;53.69
75543;BME280;64129;53.508;10.476;2023-05-10T06:45:55;100354.84;;;13.60;53.70
75543;BME280;64129;53.508;10.476;2023-05-10T06:48:22;100360.91;;;13.63;53.43
75543;BME280;64129;53.508;10.476;2023-05-10T06:50:48;100369.13;;;13.79;53.42
75543;BME280;64129;53.508;10.476;2023-05-10T06:53:15;100358.06;;;13.88;53.11
75543;BME280;64129;53.508;10.476;2023-05-10T06:55:41;100357.94;;;13.91;53.58
75543;BME280;64129;53.508;10.476;2023-05-10T06:58:08;100361.00;;;14.23;52.75
75543;BME280;64129;53.508;10.476;2023-05-10T07:00:35;100355.25;;;14.12;52.79
75543;BME280;64129;53.508;10.476;2023-05-10T07:03:03;100359.00;;;14.28;53.49
75543;BME280;64129;53.508;10.476;2023-05-10T07:05:29;100358.56;;;14.37;52.55
75543;BME280;64129;53.508;10.476;2023-05-10T07:07:56;100355.63;;;14.43;52.10
75543;BME280;64129;53.508;10.476;2023-05-10T07:10:22;100351.47;;;14.56;52.28
75543;BME280;64129;53.508;10.476;2023-05-10T07:12:49;100354.09;;;14.77;51.60
75543;BME280;64129;53.508;10.476;2023-05-10T07:15:16;100352.78;;;14.85;51.82
75543;BME280;64129;53.508;10.476;2023-05-10T07:17:43;100363.84;;;14.96;51.15
75543;BME280;64129;53.508;10.476;2023-05-10T07:20:11;100366.31;;;15.01;51.07
75543;BME280;64129;53.508;10.476;2023-05-10T07:22:38;100359.78;;;14.88;50.74
75543;BME280;64129;53.508;10.476;2023-05-10T07:25:05;100369.78;;;15.03;51.10
75543;BME280;64129;53.508;10.476;2023-05-10T07:27:31;100367.16;;;14.83;51.68
75543;BME280;64129;53.508;10.476;2023-05-10T07:29:58;100371.81;;;14.98;51.28
75543;BME280;64129;53.508;10.476;2023-05-10T07:32:25;100370.84;;;14.99;51.56
75543;BME280;64129;53.508;10.476;2023-05-10T07:34:52;100366.41;;;15.17;51.45
75543;BME280;64129;53.508;10.476;2023-05-10T07:37:18;100361.34;;;15.29;51.22
75543;BME280;64129;53.508;10.476;2023-05-10T07:39:45;100359.00;;;15.41;51.52
75543;BME280;64129;53.508;10.476;2023-05-10T07:42:11;100366.25;;;15.56;50.94
75543;BME280;64129;53.508;10.476;2023-05-10T07:44:38;100358.59;;;15.31;51.13
75543;BME280;64129;53.508;10.476;2023-05-10T07:47:04;100360.41;;;15.31;51.10
75543;BME280;64129;53.508;10.476;2023-05-10T07:49:31;100362.47;;;15.43;51.11
75543;BME280;64129;53.508;10.476;2023-05-10T07:51:57;100362.63;;;15.40;51.12
75543;BME280;64129;53.508;10.476;2023-05-10T07:54:24;100363.75;;;15.53;51.17
75543;BME280;64129;53.508;10.476;2023-05-10T07:56:50;100360.44;;;15.48;51.20
75543;BME280;64129;53.508;10.476;2023-05-10T07:59:17;100358.22;;;15.75;51.39
75543;BME280;64129;53.508;10.476;2023-05-10T08:01:44;100365.06;;;15.63;50.94
75543;BME280;64129;53.508;10.476;2023-05-10T08:04:11;100365.63;;;15.70;51.40
75543;BME280;64129;53.508;10.476;2023-05-10T08:06:38;100370.56;;;15.95;50.77
75543;BME280;64129;53.508;10.476;2023-05-10T08:09:05;100366.69;;;16.17;50.75
75543;BME280;64129;53.508;10.476;2023-05-10T08:11:31;100366.91;;;16.30;50.68
75543;BME280;64129;53.508;10.476;2023-05-10T08:13:58;100367.72;;;16.32;50.18
75543;BME280;64129;53.508;10.476;2023-05-10T08:16:25;100363.97;;;17.17;49.33
75543;BME280;64129;53.508;10.476;2023-05-10T08:18:52;100358.16;;;17.40;47.90
75543;BME280;64129;53.508;10.476;2023-05-10T08:21:21;100355.59;;;17.68;48.07
75543;BME280;64129;53.508;10.476;2023-05-10T08:23:47;100367.75;;;17.90;48.12
75543;BME280;64129;53.508;10.476;2023-05-10T08:26:15;100364.59;;;17.83;46.81
75543;BME280;64129;53.508;10.476;2023-05-10T08:28:41;100366.47;;;18.11;45.83
75543;BME280;64129;53.508;10.476;2023-05-10T08:31:08;100368.22;;;18.12;45.65
75543;BME280;64129;53.508;10.476;2023-05-10T08:33:34;100362.59;;;18.01;44.77
75543;BME280;64129;53.508;10.476;2023-05-10T08:36:01;100367.50;;;18.67;44.51
75543;BME280;64129;53.508;10.476;2023-05-10T08:38:27;100366.53;;;18.54;43.66
75543;BME280;64129;53.508;10.476;2023-05-10T08:40:55;100363.50;;;18.74;42.40
75543;BME280;64129;53.508;10.476;2023-05-10T08:43:29;100367.28;;;19.13;44.21
75543;BME280;64129;53.508;10.476;2023-05-10T08:45:56;100371.00;;;19.51;42.86
75543;BME280;64129;53.508;10.476;2023-05-10T08:48:28;100376.09;;;19.42;43.34
75543;BME280;64129;53.508;10.476;2023-05-10T08:50:57;100385.72;;;19.19;42.72
75543;BME280;64129;53.508;10.476;2023-05-10T08:53:24;100365.25;;;19.43;42.59
75543;BME280;64129;53.508;10.476;2023-05-10T08:55:53;100382.47;;;19.41;43.53
75543;BME280;64129;53.508;10.476;2023-05-10T08:58:20;100381.50;;;19.56;42.09
75543;BME280;64129;53.508;10.476;2023-05-10T09:00:48;100386.47;;;19.89;42.00
75543;BME280;64129;53.508;10.476;2023-05-10T09:03:16;100388.22;;;19.49;42.15
75543;BME280;64129;53.508;10.476;2023-05-10T09:05:44;100398.53;;;19.42;42.42
75543;BME280;64129;53.508;10.476;2023-05-10T09:08:11;100399.97;;;19.75;42.47
75543;BME280;64129;53.508;10.476;2023-05-10T09:10:39;100399.88;;;19.49;42.71
75543;BME280;64129;53.508;10.476;2023-05-10T09:13:10;100404.72;;;19.30;43.63
75543;BME280;64129;53.508;10.476;2023-05-10T09:15:37;100409.66;;;19.23;43.30
75543;BME280;64129;53.508;10.476;2023-05-10T09:18:04;100399.34;;;19.30;42.95
75543;BME280;64129;53.508;10.476;2023-05-10T09:20:31;100403.84;;;19.44;43.54
75543;BME280;64129;53.508;10.476;2023-05-10T09:22:57;100407.25;;;19.19;44.53
75543;BME280;64129;53.508;10.476;2023-05-10T09:25:24;100406.63;;;18.87;44.99
75543;BME280;64129;53.508;10.476;2023-05-10T09:27:51;100409.22;;;18.88;45.14
75543;BME280;64129;53.508;10.476;2023-05-10T09:30:26;100410.47;;;18.83;45.46
75543;BME280;64129;53.508;10.476;2023-05-10T09:32:54;100417.16;;;18.47;45.45
75543;BME280;64129;53.508;10.476;2023-05-10T09:35:27;100407.88;;;18.37;46.08
75543;BME280;64129;53.508;10.476;2023-05-10T09:37:56;100408.75;;;18.23;46.82
75543;BME280;64129;53.508;10.476;2023-05-10T09:40:25;100423.72;;;18.72;45.79
75543;BME280;64129;53.508;10.476;2023-05-10T09:42:54;100418.53;;;18.97;45.27
75543;BME280;64129;53.508;10.476;2023-05-10T09:45:26;100419.69;;;18.93;45.79
75543;BME280;64129;53.508;10.476;2023-05-10T09:47:53;100423.25;;;18.93;46.09
75543;BME280;64129;53.508;10.476;2023-05-10T09:50:20;100424.97;;;18.80;46.51
75543;BME280;64129;53.508;10.476;2023-05-10T09:53:14;100427.38;;;19.13;45.54
75543;BME280;64129;53.508;10.476;2023-05-10T09:55:45;100431.41;;;18.63;46.40
75543;BME280;64129;53.508;10.476;2023-05-10T09:58:15;100432.72;;;18.56;47.00
75543;BME280;64129;53.508;10.476;2023-05-10T10:00:43;100431.69;;;18.73;46.72
75543;BME280;64129;53.508;10.476;2023-05-10T10:03:15;100439.56;;;18.32;47.37
75543;BME280;64129;53.508;10.476;2023-05-10T10:05:42;100434.78;;;18.37;47.01
75543;BME280;64129;53.508;10.476;2023-05-10T10:08:12;100440.00;;;18.40;47.99
75543;BME280;64129;53.508;10.476;2023-05-10T10:10:39;100445.19;;;18.57;47.48
75543;BME280;64129;53.508;10.476;2023-05-10T10:13:12;100452.22;;;18.60;47.69
75543;BME280;64129;53.508;10.476;2023-05-10T10:15:39;100447.56;;;18.92;47.87
75543;BME280;64129;53.508;10.476;2023-05-10T10:18:06;100448.88;;;19.27;46.73
75543;BME280;64129;53.508;10.476;2023-05-10T10:20:33;100451.75;;;18.67;47.26
75543;BME280;64129;53.508;10.476;2023-05-10T10:22:59;100451.78;;;18.37;48.75
75543;BME280;64129;53.508;10.476;2023-05-10T10:25:26;100457.88;;;18.55;48.17
75543;BME280;64129;53.508;10.476;2023-05-10T10:30:27;100457.50;;;18.47;48.25
75543;BME280;64129;53.508;10.476;2023-05-10T10:33:18;100461.56;;;18.24;49.45
75543;BME280;64129;53.508;10.476;2023-05-10T10:35:54;100463.56;;;17.75;51.44
75543;BME280;64129;53.508;10.476;2023-05-10T10:38:21;100469.28;;;17.85;52.47
75543;BME280;64129;53.508;10.476;2023-05-10T10:41:02;100466.78;;;17.82;52.28
75543;BME280;64129;53.508;10.476;2023-05-10T10:43:29;100477.75;;;17.61;53.58
75543;BME280;64129;53.508;10.476;2023-05-10T10:46:13;100471.88;;;17.39;53.63
75543;BME280;64129;53.508;10.476;2023-05-10T10:48:51;100472.72;;;17.24;54.68
75543;BME280;64129;53.508;10.476;2023-05-10T10:55:01;100484.66;;;17.18;57.81
75543;BME280;64129;53.508;10.476;2023-05-10T10:57:31;100490.75;;;17.37;55.62
75543;BME280;64129;53.508;10.476;2023-05-10T11:02:52;100492.22;;;16.94;58.49
75543;BME280;64129;53.508;10.476;2023-05-10T11:05:45;100495.91;;;17.09;57.63
75543;BME280;64129;53.508;10.476;2023-05-10T11:08:34;100497.78;;;17.07;58.02
75543;BME280;64129;53.508;10.476;2023-05-10T11:11:04;100498.25;;;16.47;59.50
75543;BME280;64129;53.508;10.476;2023-05-10T11:13:40;100501.69;;;16.15;60.85
75543;BME280;64129;53.508;10.476;2023-05-10T11:16:24;100505.19;;;16.51;59.48
75543;BME280;64129;53.508;10.476;2023-05-10T11:18:53;100509.41;;;16.04;61.38
75543;BME280;64129;53.508;10.476;2023-05-10T11:21:20;100521.31;;;15.79;63.83
75543;BME280;64129;53.508;10.476;2023-05-10T11:23:47;100521.13;;;15.65;65.41
75543;BME280;64129;53.508;10.476;2023-05-10T11:26:15;100525.69;;;15.63;67.29
75543;BME280;64129;53.508;10.476;2023-05-10T11:28:45;100521.88;;;16.05;66.29
75543;BME280;64129;53.508;10.476;2023-05-10T11:31:19;100531.72;;;16.04;68.13
75543;BME280;64129;53.508;10.476;2023-05-10T11:33:47;100533.44;;;16.05;67.66
75543;BME280;64129;53.508;10.476;2023-05-10T11:36:24;100531.59;;;15.88;69.85
75543;BME280;64129;53.508;10.476;2023-05-10T11:38:52;100530.41;;;15.56;70.54
75543;BME280;64129;53.508;10.476;2023-05-10T11:41:19;100543.31;;;15.48;71.94
75543;BME280;64129;53.508;10.476;2023-05-10T11:43:50;100537.69;;;15.73;71.70
75543;BME280;64129;53.508;10.476;2023-05-10T11:46:21;100547.00;;;15.46;73.21
75543;BME280;64129;53.508;10.476;2023-05-10T11:48:49;100549.22;;;15.55;73.38
75543;BME280;64129;53.508;10.476;2023-05-10T11:51:20;100546.56;;;15.36;74.24
75543;BME280;64129;53.508;10.476;2023-05-10T11:53:49;100543.34;;;15.67;72.36
75543;BME280;64129;53.508;10.476;2023-05-10T11:56:16;100553.59;;;15.18;75.20
75543;BME280;64129;53.508;10.476;2023-05-10T11:58:43;100551.34;;;15.29;73.78
75543;BME280;64129;53.508;10.476;2023-05-10T12:01:10;100555.59;;;15.52;73.30
75543;BME280;64129;53.508;10.476;2023-05-10T12:03:37;100555.47;;;14.97;75.82
75543;BME280;64129;53.508;10.476;2023-05-10T12:06:04;100563.13;;;14.85;76.83
75543;BME280;64129;53.508;10.476;2023-05-10T12:08:31;100555.53;;;14.96;77.77
75543;BME280;64129;53.508;10.476;2023-05-10T12:11:06;100559.28;;;15.50;75.40
75543;BME280;64129;53.508;10.476;2023-05-10T12:13:41;100561.50;;;15.21;77.62
75543;BME280;64129;53.508;10.476;2023-05-10T12:16:19;100567.16;;;15.53;75.37
75543;BME280;64129;53.508;10.476;2023-05-10T12:18:50;100574.88;;;15.60;76.75
75543;BME280;64129;53.508;10.476;2023-05-10T12:21:20;100577.88;;;15.53;75.11
75543;BME280;64129;53.508;10.476;2023-05-10T12:23:49;100577.34;;;15.65;77.08
75543;BME280;64129;53.508;10.476;2023-05-10T12:26:16;100578.31;;;15.64;76.49
75543;BME280;64129;53.508;10.476;2023-05-10T12:28:43;100578.34;;;15.81;76.29
75543;BME280;64129;53.508;10.476;2023-05-10T12:31:10;100575.28;;;16.08;73.97
75543;BME280;64129;53.508;10.476;2023-05-10T12:33:42;100584.44;;;15.66;76.79
75543;BME280;64129;53.508;10.476;2023-05-10T12:36:10;100588.25;;;15.60;77.25
75543;BME280;64129;53.508;10.476;2023-05-10T12:38:41;100598.78;;;15.65;76.81
75543;BME280;64129;53.508;10.476;2023-05-10T12:41:12;100596.59;;;15.73;77.01
75543;BME280;64129;53.508;10.476;2023-05-10T12:43:39;100597.44;;;15.93;75.59
75543;BME280;64129;53.508;10.476;2023-05-10T12:46:14;100606.00;;;15.63;77.14
75543;BME280;64129;53.508;10.476;2023-05-10T12:48:42;100608.41;;;15.49;76.67
75543;BME280;64129;53.508;10.476;2023-05-10T12:51:09;100611.00;;;15.89;77.34
75543;BME280;64129;53.508;10.476;2023-05-10T12:53:38;100612.38;;;15.79;77.32
75543;BME280;64129;53.508;10.476;2023-05-10T12:56:06;100614.56;;;15.51;77.88
75543;BME280;64129;53.508;10.476;2023-05-10T12:58:34;100618.44;;;15.83;76.55
75543;BME280;64129;53.508;10.476;2023-05-10T13:01:01;100617.72;;;15.79;77.98
75543;BME280;64129;53.508;10.476;2023-05-10T13:03:28;100621.66;;;15.72;77.37
75543;BME280;64129;53.508;10.476;2023-05-10T13:05:55;100617.97;;;15.54;77.51
75543;BME280;64129;53.508;10.476;2023-05-10T13:08:21;100621.13;;;15.44;78.79